createdAt,value
2018-04-28T00:02:15.584Z,4.40
2018-04-28T00:04:44.240Z,3.63
2018-04-28T00:07:12.522Z,3.70
2018-04-28T00:09:40.828Z,3.47
2018-04-28T00:12:09.483Z,3.33
2018-04-28T00:14:37.745Z,3.67
2018-04-28T00:17:06.040Z,3.70
2018-04-28T00:19:35.944Z,3.67
2018-04-28T00:25:00.057Z,3.60
2018-04-28T00:27:28.368Z,3.43
2018-04-28T00:30:02.317Z,4.10
2018-04-28T00:32:30.625Z,4.23
2018-04-28T00:35:00.949Z,4.07
2018-04-28T00:40:29.128Z,4.20
2018-04-28T00:42:57.419Z,3.80
2018-04-28T00:45:30.903Z,3.93
2018-04-28T00:47:59.600Z,3.47
2018-04-28T00:50:30.883Z,3.80
2018-04-28T00:52:59.152Z,4.00
2018-04-28T00:55:29.304Z,3.27
2018-04-28T01:01:07.742Z,3.97
2018-04-28T01:03:37.825Z,4.13
2018-04-28T01:06:06.096Z,3.70
2018-04-28T01:08:34.360Z,4.30
2018-04-28T01:11:21.189Z,4.30
2018-04-28T01:16:44.968Z,4.13
2018-04-28T01:19:13.233Z,3.73
2018-04-28T01:21:42.813Z,3.87
2018-04-28T01:24:20.564Z,3.63
2018-04-28T01:29:58.961Z,4.20
2018-04-28T01:32:27.181Z,4.47
2018-04-28T01:35:08.893Z,4.20
2018-04-28T01:37:41.789Z,4.00
2018-04-28T01:40:12.222Z,4.40
2018-04-28T01:42:52.779Z,4.30
2018-04-28T01:45:24.943Z,4.57
2018-04-28T01:48:04.983Z,4.27
2018-04-28T01:53:39.752Z,5.00
2018-04-28T01:56:26.700Z,4.67
2018-04-28T01:59:07.121Z,4.57
2018-04-28T02:01:37.920Z,4.60
2018-04-28T02:04:19.090Z,4.90
2018-04-28T02:07:04.060Z,4.53
2018-04-28T02:09:57.821Z,4.80
2018-04-28T02:12:28.776Z,4.90
2018-04-28T02:14:57.897Z,4.70
2018-04-28T02:17:44.026Z,4.70
2018-04-28T02:20:29.821Z,4.87
2018-04-28T02:23:09.270Z,4.73
2018-04-28T02:25:43.932Z,4.50
2018-04-28T02:28:20.800Z,4.13
2018-04-28T02:30:55.903Z,4.30
2018-04-28T02:33:29.441Z,4.60
2018-04-28T02:35:58.681Z,4.97
2018-04-28T02:38:43.848Z,4.40
2018-04-28T02:41:27.564Z,4.60
2018-04-28T02:43:56.612Z,4.47
2018-04-28T02:46:24.907Z,5.20
2018-04-28T02:51:57.595Z,4.63
2018-04-28T02:54:27.203Z,4.47
2018-04-28T02:57:11.304Z,4.77
2018-04-28T02:59:47.417Z,4.87
2018-04-28T03:02:21.621Z,4.70
2018-04-28T03:05:13.537Z,4.63
2018-04-28T03:07:53.674Z,5.27
2018-04-28T03:10:25.753Z,4.80
2018-04-28T03:12:54.421Z,4.90
2018-04-28T03:15:22.698Z,4.80
2018-04-28T03:17:57.150Z,4.23
2018-04-28T03:20:26.119Z,4.47
2018-04-28T03:22:57.324Z,4.80
2018-04-28T03:28:30.349Z,4.80
2018-04-28T03:34:15.057Z,5.37
2018-04-28T03:39:45.172Z,4.57
2018-04-28T03:42:14.906Z,4.37
2018-04-28T03:44:53.092Z,4.37
2018-04-28T03:47:41.188Z,4.73
2018-04-28T03:53:07.000Z,4.80
2018-04-28T03:55:36.667Z,5.07
2018-04-28T03:58:16.823Z,4.63
2018-04-28T04:00:57.040Z,4.30
2018-04-28T04:03:25.569Z,4.10
2018-04-28T04:06:15.641Z,4.60
2018-04-28T04:08:54.720Z,4.50
2018-04-28T04:14:38.556Z,4.70
2018-04-28T04:20:15.215Z,5.00
2018-04-28T04:22:55.247Z,4.07
2018-04-28T04:25:27.515Z,4.50
2018-04-28T04:28:06.828Z,4.70
2018-04-28T04:33:49.714Z,4.77
2018-04-28T04:36:29.855Z,4.60
2018-04-28T04:39:00.533Z,4.63
2018-04-28T04:41:43.386Z,5.10
2018-04-28T04:44:38.353Z,4.80
2018-04-28T04:47:12.165Z,4.77
2018-04-28T04:49:52.669Z,5.33
2018-04-28T04:52:33.785Z,5.00
2018-04-28T04:55:09.866Z,4.67
2018-04-28T04:57:42.924Z,5.03
2018-04-28T05:03:18.692Z,5.17
2018-04-28T05:05:51.373Z,4.73
2018-04-28T05:08:31.909Z,4.80
2018-04-28T05:11:11.949Z,5.87
2018-04-28T05:13:41.117Z,4.77
2018-04-28T05:16:21.365Z,5.00
2018-04-28T05:22:12.061Z,5.30
2018-04-28T05:24:52.073Z,4.70
2018-04-28T05:27:22.901Z,4.70
2018-04-28T05:29:55.199Z,4.77
2018-04-28T05:32:30.048Z,4.87
2018-04-28T05:38:26.925Z,4.50
2018-04-28T05:41:09.269Z,4.43
2018-04-28T05:43:51.173Z,5.00
2018-04-28T05:49:32.277Z,5.50
2018-04-28T05:52:22.220Z,4.30
2018-04-28T05:54:58.591Z,5.37
2018-04-28T05:57:38.876Z,5.00
2018-04-28T06:00:16.850Z,5.67
2018-04-28T06:02:48.757Z,5.07
2018-04-28T06:05:19.827Z,5.40
2018-04-28T06:07:53.764Z,5.50
2018-04-28T06:13:38.737Z,5.30
2018-04-28T06:16:17.936Z,4.77
2018-04-28T06:18:49.078Z,4.47
2018-04-28T06:21:17.365Z,4.83
2018-04-28T06:23:45.634Z,5.10
2018-04-28T06:26:14.351Z,5.03
2018-04-28T06:28:42.661Z,5.07
2018-04-28T06:31:11.350Z,4.50
2018-04-28T06:33:39.710Z,4.70
2018-04-28T06:36:08.375Z,4.97
2018-04-28T06:38:36.636Z,4.57
2018-04-28T06:41:04.945Z,4.13
2018-04-28T06:43:33.636Z,4.70
2018-04-28T06:46:02.300Z,4.60
2018-04-28T06:48:30.623Z,4.67
2018-04-28T06:50:58.976Z,4.40
2018-04-28T06:53:27.433Z,4.20
2018-04-28T06:55:55.926Z,4.20
2018-04-28T06:58:24.911Z,4.20
2018-04-28T07:00:53.745Z,4.43
2018-04-28T07:03:22.280Z,4.57
2018-04-28T07:05:50.589Z,4.63
2018-04-28T07:08:18.867Z,4.60
2018-04-28T07:10:47.738Z,4.30
2018-04-28T07:13:15.951Z,4.53
2018-04-28T07:15:44.249Z,4.33
2018-04-28T07:18:12.570Z,4.20
2018-04-28T07:20:41.402Z,4.60
2018-04-28T07:23:09.677Z,4.67
2018-04-28T07:25:38.080Z,4.03
2018-04-28T07:28:06.341Z,4.13
2018-04-28T07:30:34.617Z,4.07
2018-04-28T07:33:02.925Z,4.33
2018-04-28T07:35:31.218Z,4.00
2018-04-28T07:37:59.881Z,3.90
2018-04-28T07:40:28.227Z,3.70
2018-04-28T07:42:56.505Z,4.23
2018-04-28T07:45:24.782Z,3.43
2018-04-28T07:47:53.109Z,3.73
2018-04-28T07:50:21.848Z,3.63
2018-04-28T07:52:50.125Z,3.97
2018-04-28T07:55:18.422Z,4.60
2018-04-28T07:57:46.709Z,3.80
2018-04-28T08:00:15.083Z,3.87
2018-04-28T08:02:43.387Z,4.17
2018-04-28T08:05:11.713Z,3.95
2018-04-28T08:07:39.993Z,3.80
2018-04-28T08:10:08.369Z,3.40
2018-04-28T08:12:36.965Z,2.90
2018-04-28T08:15:05.244Z,2.73
2018-04-28T08:17:33.553Z,3.00
2018-04-28T08:20:02.523Z,3.23
2018-04-28T08:22:31.273Z,2.97
2018-04-28T08:24:59.507Z,2.40
2018-04-28T08:27:28.405Z,3.00
2018-04-28T08:29:57.083Z,2.87
2018-04-28T08:32:25.834Z,3.10
2018-04-28T08:34:54.125Z,2.70
2018-04-28T08:37:22.722Z,3.00
2018-04-28T08:39:51.027Z,2.83
2018-04-28T08:42:19.307Z,3.07
2018-04-28T08:44:47.577Z,2.80
2018-04-28T08:47:15.871Z,3.50
2018-04-28T08:49:44.277Z,2.80
2018-04-28T08:52:12.545Z,2.70
2018-04-28T08:54:41.153Z,2.90
2018-04-28T08:57:09.452Z,2.80
2018-04-28T09:02:41.864Z,2.70
2018-04-28T09:05:10.222Z,2.90
2018-04-28T09:07:38.512Z,2.60
2018-04-28T09:10:06.863Z,2.70
2018-04-28T09:12:35.128Z,2.90
2018-04-28T09:15:03.418Z,3.03
2018-04-28T09:17:31.731Z,2.63
2018-04-28T09:20:00.064Z,2.90
2018-04-28T09:22:29.057Z,2.90
2018-04-28T09:24:57.417Z,2.67
2018-04-28T09:27:25.714Z,2.70
2018-04-28T09:29:54.406Z,2.80
2018-04-28T09:32:22.686Z,2.30
2018-04-28T09:34:50.991Z,2.73
2018-04-28T09:37:19.276Z,2.70
2018-04-28T09:39:47.548Z,3.07
2018-04-28T09:42:16.084Z,2.27
2018-04-28T09:44:44.391Z,2.43
2018-04-28T09:47:12.672Z,2.20
2018-04-28T09:49:41.024Z,2.40
2018-04-28T09:52:09.710Z,2.53
2018-04-28T09:54:38.060Z,2.43
2018-04-28T09:57:06.682Z,2.27
2018-04-28T09:59:34.977Z,2.40
2018-04-28T10:02:09.036Z,2.70
2018-04-28T10:04:37.843Z,2.97
2018-04-28T10:07:06.121Z,2.80
2018-04-28T10:09:34.419Z,2.60
2018-04-28T10:12:03.905Z,2.33
2018-04-28T10:14:32.183Z,2.53
2018-04-28T10:17:01.165Z,2.50
2018-04-28T10:19:29.600Z,2.87
2018-04-28T10:21:58.226Z,2.93
2018-04-28T10:24:26.558Z,2.37
2018-04-28T10:26:54.840Z,2.57
2018-04-28T10:29:23.281Z,3.00
2018-04-28T10:31:52.045Z,2.80
2018-04-28T10:34:20.308Z,2.37
2018-04-28T10:36:48.791Z,2.50
2018-04-28T10:39:17.200Z,2.50
2018-04-28T10:41:45.891Z,2.60
2018-04-28T10:44:14.387Z,2.30
2018-04-28T10:46:43.021Z,2.50
2018-04-28T10:49:11.456Z,2.53
2018-04-28T10:51:39.791Z,2.33
2018-04-28T10:54:08.146Z,2.37
2018-04-28T10:56:36.437Z,2.27
2018-04-28T10:59:04.778Z,2.80
2018-04-28T11:01:33.112Z,2.60
2018-04-28T11:04:01.466Z,2.37
2018-04-28T11:06:29.729Z,2.23
2018-04-28T11:08:58.047Z,2.07
2018-04-28T11:11:26.396Z,2.30
2018-04-28T11:13:54.697Z,1.80
2018-04-28T11:16:22.960Z,2.03
2018-04-28T11:18:51.241Z,2.30
2018-04-28T11:21:19.788Z,2.37
2018-04-28T11:23:48.062Z,2.57
2018-04-28T11:26:16.351Z,2.37
2018-04-28T11:28:44.704Z,2.10
2018-04-28T11:31:13.351Z,2.30
2018-04-28T11:33:41.658Z,1.80
2018-04-28T11:36:10.001Z,1.97
2018-04-28T11:38:38.371Z,2.17
2018-04-28T11:41:07.067Z,2.10
2018-04-28T11:43:35.398Z,2.40
2018-04-28T11:46:03.640Z,2.33
2018-04-28T11:48:32.481Z,2.17
2018-04-28T11:51:01.220Z,2.07
2018-04-28T11:53:30.378Z,2.13
2018-04-28T11:55:59.685Z,2.17
2018-04-28T11:58:28.840Z,2.30
2018-04-28T12:01:02.332Z,2.33
2018-04-28T12:03:32.926Z,2.20
2018-04-28T12:06:02.056Z,2.07
2018-04-28T12:08:30.996Z,2.17
2018-04-28T12:11:00.177Z,2.73
2018-04-28T12:13:28.478Z,2.07
2018-04-28T12:15:56.758Z,2.33
2018-04-28T12:18:25.623Z,2.40
2018-04-28T12:20:54.569Z,2.40
2018-04-28T12:23:24.255Z,2.17
2018-04-28T12:25:53.888Z,2.03
2018-04-28T12:28:26.066Z,2.23
2018-04-28T12:30:58.333Z,2.00
2018-04-28T12:33:27.471Z,1.97
2018-04-28T12:35:56.962Z,2.43
2018-04-28T12:38:30.751Z,2.60
2018-04-28T12:40:59.648Z,2.00
2018-04-28T12:43:27.974Z,1.77
2018-04-28T12:45:56.638Z,2.00
2018-04-28T12:48:24.948Z,2.13
2018-04-28T12:50:53.663Z,1.73
2018-04-28T12:53:27.220Z,2.10
2018-04-28T12:55:56.141Z,1.70
2018-04-28T12:58:25.544Z,1.57
2018-04-28T13:00:54.183Z,1.67
2018-04-28T13:03:22.496Z,1.40
2018-04-28T13:05:50.837Z,1.63
2018-04-28T13:08:19.111Z,1.60
2018-04-28T13:10:47.575Z,2.07
2018-04-28T13:13:15.879Z,1.57
2018-04-28T13:15:44.160Z,1.80
2018-04-28T13:18:12.869Z,1.70
2018-04-28T13:20:41.581Z,1.77
2018-04-28T13:23:09.871Z,1.60
2018-04-28T13:25:38.155Z,1.50
2018-04-28T13:28:06.491Z,1.53
2018-04-28T13:30:34.777Z,1.53
2018-04-28T13:33:03.058Z,1.83
2018-04-28T13:35:31.680Z,1.47
2018-04-28T13:37:59.959Z,1.50
2018-04-28T13:40:28.240Z,1.57
2018-04-28T13:42:56.565Z,1.60
2018-04-28T13:45:24.850Z,1.43
2018-04-28T13:47:53.156Z,1.50
2018-04-28T13:50:21.462Z,1.23
2018-04-28T13:52:50.128Z,1.30
2018-04-28T13:55:18.433Z,1.50
2018-04-28T13:57:47.165Z,1.30
2018-04-28T14:00:15.450Z,1.43
2018-04-28T14:02:43.749Z,1.50
2018-04-28T14:05:12.482Z,1.20
2018-04-28T14:07:40.761Z,1.20
2018-04-28T14:10:09.029Z,1.53
2018-04-28T14:12:37.494Z,1.20
2018-04-28T14:15:06.453Z,1.30
2018-04-28T14:17:34.725Z,1.50
2018-04-28T14:20:03.063Z,1.10
2018-04-28T14:22:31.999Z,1.23
2018-04-28T14:25:00.350Z,1.30
2018-04-28T14:27:28.661Z,1.37
2018-04-28T14:29:56.952Z,1.33
2018-04-28T14:32:25.257Z,1.47
2018-04-28T14:34:53.558Z,1.30
2018-04-28T14:37:21.843Z,1.50
2018-04-28T14:39:50.465Z,1.50
2018-04-28T14:42:19.201Z,1.20
2018-04-28T14:44:47.487Z,1.50
2018-04-28T14:47:15.768Z,1.50
2018-04-28T14:49:44.161Z,1.40
2018-04-28T14:52:12.441Z,1.40
2018-04-28T14:54:40.807Z,1.33
2018-04-28T14:57:09.082Z,1.40
2018-04-28T14:59:37.578Z,1.37
2018-04-28T15:02:05.878Z,1.83
2018-04-28T15:04:34.533Z,1.30
2018-04-28T15:07:02.837Z,1.23
2018-04-28T15:09:31.563Z,1.20
2018-04-28T15:11:59.842Z,1.60
2018-04-28T15:14:28.181Z,1.30
2018-04-28T15:16:56.737Z,1.50
2018-04-28T15:19:25.044Z,1.40
2018-04-28T15:21:53.694Z,1.40
2018-04-28T15:24:21.982Z,1.40
2018-04-28T15:26:50.320Z,1.47
2018-04-28T15:29:18.629Z,2.00
2018-04-28T15:31:47.092Z,1.27
2018-04-28T15:34:15.595Z,1.57
2018-04-28T15:36:44.824Z,1.37
2018-04-28T15:39:13.117Z,1.40
2018-04-28T15:41:41.428Z,1.47
2018-04-28T15:44:10.127Z,1.47
2018-04-28T15:46:38.408Z,1.47
2018-04-28T15:49:07.220Z,2.27
2018-04-28T15:51:35.967Z,1.57
2018-04-28T15:54:04.253Z,1.77
2018-04-28T15:56:32.566Z,1.77
2018-04-28T15:59:00.899Z,1.87
2018-04-28T16:01:29.186Z,1.50
2018-04-28T16:03:57.490Z,1.77
2018-04-28T16:06:25.784Z,1.50
2018-04-28T16:08:54.061Z,1.40
2018-04-28T16:11:22.721Z,1.30
2018-04-28T16:13:51.035Z,1.80
2018-04-28T16:16:19.318Z,1.50
2018-04-28T16:18:48.037Z,1.50
2018-04-28T16:21:16.410Z,1.50
2018-04-28T16:23:44.794Z,1.70
2018-04-28T16:26:13.145Z,1.50
2018-04-28T16:28:41.661Z,1.63
2018-04-28T16:31:09.940Z,1.50
2018-04-28T16:33:38.278Z,1.40
2018-04-28T16:36:06.545Z,1.53
2018-04-28T16:38:34.822Z,1.33
2018-04-28T16:41:03.236Z,1.57
2018-04-28T16:43:31.517Z,1.57
2018-04-28T16:45:59.794Z,1.70
2018-04-28T16:48:28.142Z,1.50
2018-04-28T16:50:56.493Z,1.33
2018-04-28T16:53:24.797Z,1.37
2018-04-28T16:55:53.188Z,1.50
2018-04-28T16:58:21.500Z,1.40
2018-04-28T17:00:50.269Z,1.30
2018-04-28T17:03:18.581Z,1.23
2018-04-28T17:05:46.873Z,1.20
2018-04-28T17:08:15.154Z,1.30
2018-04-28T17:10:43.477Z,1.20
2018-04-28T17:13:12.057Z,1.30
2018-04-28T17:15:40.654Z,1.40
2018-04-28T17:18:08.958Z,1.43
2018-04-28T17:20:37.934Z,1.50
2018-04-28T17:23:06.242Z,1.50
2018-04-28T17:25:34.549Z,1.40
2018-04-28T17:28:02.833Z,1.50
2018-04-28T17:30:31.133Z,1.30
2018-04-28T17:32:59.441Z,1.50
2018-04-28T17:35:27.705Z,1.40
2018-04-28T17:37:56.381Z,1.60
2018-04-28T17:40:25.113Z,1.50
2018-04-28T17:42:53.431Z,1.60
2018-04-28T17:45:21.755Z,1.83
2018-04-28T17:47:50.068Z,1.80
2018-04-28T17:50:18.356Z,1.30
2018-04-28T17:52:46.634Z,1.43
2018-04-28T17:55:15.794Z,1.97
2018-04-28T17:57:44.093Z,1.70
2018-04-28T18:00:12.365Z,1.67
2018-04-28T18:02:40.855Z,1.50
2018-04-28T18:05:09.082Z,1.60
2018-04-28T18:07:37.364Z,2.03
2018-04-28T18:10:05.696Z,1.50
2018-04-28T18:12:33.985Z,1.60
2018-04-28T18:15:02.657Z,1.60
2018-04-28T18:17:31.081Z,1.50
2018-04-28T18:19:59.350Z,1.73
2018-04-28T18:22:28.508Z,1.43
2018-04-28T18:24:56.817Z,1.97
2018-04-28T18:27:25.080Z,2.00
2018-04-28T18:29:53.790Z,1.53
2018-04-28T18:32:22.740Z,2.07
2018-04-28T18:34:51.026Z,1.80
2018-04-28T18:37:19.339Z,2.00
2018-04-28T18:39:47.679Z,2.10
2018-04-28T18:42:16.358Z,2.40
2018-04-28T18:44:44.668Z,2.50
2018-04-28T18:47:13.048Z,2.70
2018-04-28T18:49:41.354Z,2.40
2018-04-28T18:52:09.661Z,2.73
2018-04-28T18:54:37.972Z,2.80
2018-04-28T18:57:06.293Z,2.40
2018-04-28T18:59:34.578Z,2.63
2018-04-28T19:02:02.921Z,2.50
2018-04-28T19:04:31.255Z,2.70
2018-04-28T19:06:59.982Z,2.20
2018-04-28T19:09:28.891Z,2.73
2018-04-28T19:11:57.194Z,2.60
2018-04-28T19:14:25.930Z,2.50
2018-04-28T19:16:54.282Z,2.83
2018-04-28T19:19:22.986Z,3.00
2018-04-28T19:21:51.292Z,2.30
2018-04-28T19:24:19.615Z,2.37
2018-04-28T19:26:47.929Z,2.50
2018-04-28T19:29:16.219Z,2.43
2018-04-28T19:31:45.396Z,2.90
2018-04-28T19:34:13.759Z,2.63
2018-04-28T19:36:42.442Z,2.77
2018-04-28T19:39:10.857Z,3.30
2018-04-28T19:41:39.164Z,2.50
2018-04-28T19:44:10.949Z,2.53
2018-04-28T19:46:39.271Z,2.90
2018-04-28T19:49:07.893Z,2.53
2018-04-28T19:51:36.228Z,2.57
2018-04-28T19:54:04.531Z,3.00
2018-04-28T19:56:33.138Z,3.23
2018-04-28T19:59:01.513Z,3.47
2018-04-28T20:01:30.247Z,2.90
2018-04-28T20:03:58.537Z,2.63
2018-04-28T20:06:26.865Z,2.30
2018-04-28T20:08:55.541Z,2.17
2018-04-28T20:11:23.834Z,2.20
2018-04-28T20:13:52.520Z,2.57
2018-04-28T20:16:20.930Z,2.47
2018-04-28T20:18:49.164Z,2.33
2018-04-28T20:21:17.579Z,2.80
2018-04-28T20:23:57.593Z,2.40
2018-04-28T20:26:26.327Z,2.40
2018-04-28T20:28:54.843Z,2.10
2018-04-28T20:31:23.177Z,2.40
2018-04-28T20:33:51.565Z,2.60
2018-04-28T20:36:19.926Z,2.33
2018-04-28T20:38:48.228Z,2.23
2018-04-28T20:41:16.573Z,2.20
2018-04-28T20:43:44.970Z,2.13
2018-04-28T20:46:13.292Z,2.27
2018-04-28T20:48:41.625Z,2.13
2018-04-28T20:51:09.904Z,2.37
2018-04-28T20:53:38.229Z,2.53
2018-04-28T20:56:07.026Z,2.70
2018-04-28T20:58:35.718Z,2.13
2018-04-28T21:01:04.640Z,2.23
2018-04-28T21:03:32.988Z,2.40
2018-04-28T21:06:01.413Z,2.33
2018-04-28T21:08:29.736Z,2.60
2018-04-28T21:10:58.559Z,2.67
2018-04-28T21:13:26.839Z,2.60
2018-04-28T21:15:55.146Z,2.47
2018-04-28T21:18:23.535Z,2.33
2018-04-28T21:20:51.843Z,2.40
2018-04-28T21:23:20.126Z,2.33
2018-04-28T21:25:48.441Z,2.73
2018-04-28T21:28:16.720Z,2.40
2018-04-28T21:30:45.449Z,2.87
2018-04-28T21:33:13.824Z,2.60
2018-04-28T21:35:42.098Z,3.07
2018-04-28T21:38:10.393Z,2.50
2018-04-28T21:40:38.730Z,3.00
2018-04-28T21:43:07.017Z,2.87
2018-04-28T21:45:35.342Z,2.80
2018-04-28T21:48:03.977Z,3.07
2018-04-28T21:50:32.290Z,2.97
2018-04-28T21:53:00.580Z,2.50
2018-04-28T21:55:29.017Z,2.70
2018-04-28T21:57:57.309Z,2.70
2018-04-28T22:00:25.651Z,2.70
2018-04-28T22:02:55.708Z,2.80
2018-04-28T22:05:24.214Z,2.97
2018-04-28T22:07:52.661Z,2.60
2018-04-28T22:10:21.203Z,2.73
2018-04-28T22:12:49.566Z,2.70
2018-04-28T22:15:17.839Z,3.07
2018-04-28T22:17:46.229Z,2.90
2018-04-28T22:20:14.511Z,3.10
2018-04-28T22:22:42.781Z,3.20
2018-04-28T22:25:11.137Z,3.10
2018-04-28T22:27:39.421Z,3.60
2018-04-28T22:30:07.685Z,3.43
2018-04-28T22:32:35.987Z,3.30
2018-04-28T22:35:04.256Z,3.10
2018-04-28T22:37:32.571Z,2.93
2018-04-28T22:40:00.934Z,3.37
2018-04-28T22:42:29.229Z,3.70
2018-04-28T22:44:57.515Z,3.17
2018-04-28T22:47:25.806Z,3.37
2018-04-28T22:49:54.494Z,3.83
2018-04-28T22:52:23.213Z,3.40
2018-04-28T22:54:51.871Z,3.23
2018-04-28T22:57:20.137Z,3.23
2018-04-28T22:59:49.116Z,3.40
2018-04-28T23:02:17.471Z,3.13
2018-04-28T23:04:45.731Z,3.60
2018-04-28T23:07:14.021Z,3.70
2018-04-28T23:09:42.293Z,3.90
2018-04-28T23:12:10.893Z,3.50
2018-04-28T23:14:39.178Z,3.30
2018-04-28T23:17:07.754Z,3.47
2018-04-28T23:19:36.020Z,3.40
2018-04-28T23:22:04.300Z,3.73
2018-04-28T23:24:32.601Z,3.87
2018-04-28T23:27:00.878Z,3.70
2018-04-28T23:29:29.828Z,4.03
2018-04-28T23:31:58.230Z,3.90
2018-04-28T23:34:27.233Z,3.47
2018-04-28T23:36:55.541Z,3.20
2018-04-28T23:39:23.844Z,3.13
2018-04-28T23:41:52.121Z,3.30
2018-04-28T23:44:20.396Z,3.30
2018-04-28T23:46:48.710Z,4.00
2018-04-28T23:49:16.997Z,4.27
2018-04-28T23:51:45.265Z,4.10
2018-04-28T23:54:13.568Z,4.23
2018-04-28T23:56:42.220Z,4.10
2018-04-28T23:59:10.493Z,3.87
